Time,TemperatureF,DewpointF,PressureIn,WindDirection,WindDirectionDegrees,WindSpeedMPH,WindSpeedGustMPH,Humidity,HourlyPrecipIn,Conditions,Clouds,dailyrainin,SolarRadiationWatts/m^2,SoftwareType,DateUTC
2013-01-30 00:04:00,38.4,37.6,29.44,NW,317,9.0,12.0,97,0.00,,,0.00,0,Wunderground v.1.15,2013-01-30 06:04:00,
2013-01-30 00:14:00,38.3,37.5,29.45,NW,323,9.0,12.0,97,0.10,,,0.02,0,Wunderground v.1.15,2013-01-30 06:14:00,
2013-01-30 00:19:00,38.2,37.4,29.45,NW,323,9.0,10.0,97,0.11,,,0.03,0,Wunderground v.1.15,2013-01-30 06:19:00,
2013-01-30 00:24:00,38.2,37.4,29.45,NW,323,8.0,10.0,97,0.08,,,0.03,0,Wunderground v.1.15,2013-01-30 06:24:00,
2013-01-30 00:29:00,38.0,37.2,29.43,NNW,330,7.0,7.0,97,0.06,,,0.04,0,Wunderground v.1.15,2013-01-30 06:29:00,
2013-01-30 00:34:00,37.9,37.1,29.41,NNW,340,6.0,7.0,97,0.06,,,0.04,0,Wunderground v.1.15,2013-01-30 06:34:00,
2013-01-30 00:44:00,37.8,37.0,29.42,NNW,338,4.0,5.0,97,0.04,,,0.05,0,Wunderground v.1.15,2013-01-30 06:44:00,
2013-01-30 00:49:00,37.8,37.0,29.43,NNW,340,4.0,4.0,97,0.04,,,0.05,0,Wunderground v.1.15,2013-01-30 06:49:00,
2013-01-30 00:54:00,37.7,36.9,29.43,NNW,334,4.0,4.0,97,0.04,,,0.05,0,Wunderground v.1.15,2013-01-30 06:54:00,
2013-01-30 00:59:00,37.7,36.9,29.43,NNW,331,4.0,4.0,97,0.04,,,0.06,0,Wunderground v.1.15,2013-01-30 06:59:00,
2013-01-30 01:04:00,37.6,36.8,29.43,NNW,333,4.0,7.0,97,0.04,,,0.06,0,Wunderground v.1.15,2013-01-30 07:04:00,
2013-01-30 01:09:00,37.6,36.8,29.43,NNW,331,4.0,4.0,97,0.04,,,0.06,0,Wunderground v.1.15,2013-01-30 07:09:00,
2013-01-30 01:19:00,37.5,36.7,29.44,NNW,331,4.0,4.0,97,0.00,,,0.07,0,Wunderground v.1.15,2013-01-30 07:19:00,
2013-01-30 01:24:00,37.5,36.7,29.44,NNW,327,4.0,4.0,97,0.00,,,0.07,0,Wunderground v.1.15,2013-01-30 07:24:00,
2013-01-30 01:29:00,37.4,36.6,29.44,NNW,327,4.0,4.0,97,0.00,,,0.07,0,Wunderground v.1.15,2013-01-30 07:29:00,
2013-01-30 01:34:00,37.4,36.6,29.43,NNW,327,3.0,4.0,97,0.00,,,0.08,0,Wunderground v.1.15,2013-01-30 07:34:00,
2013-01-30 01:39:00,37.4,36.6,29.44,NW,319,3.0,6.0,97,0.00,,,0.08,0,Wunderground v.1.15,2013-01-30 07:39:00,
2013-01-30 01:49:00,37.4,36.6,29.45,NW,312,7.0,7.0,97,0.00,,,0.08,0,Wunderground v.1.15,2013-01-30 07:49:00,
2013-01-30 01:54:00,37.4,36.6,29.46,NW,304,7.0,7.0,97,0.00,,,0.08,0,Wunderground v.1.15,2013-01-30 07:54:00,
2013-01-30 01:59:00,37.3,36.5,29.45,NW,304,6.0,6.0,97,0.00,,,0.08,0,Wunderground v.1.15,2013-01-30 07:59:00,
2013-01-30 02:04:00,37.3,36.5,29.47,WNW,296,6.0,6.0,97,0.00,,,0.09,0,Wunderground v.1.15,2013-01-30 08:04:00,
2013-01-30 02:09:00,37.3,36.5,29.48,WNW,286,6.0,7.0,97,0.00,,,0.09,0,Wunderground v.1.15,2013-01-30 08:09:00,
2013-01-30 02:14:00,37.3,36.5,29.47,WNW,292,7.0,7.0,97,0.00,,,0.09,0,Wunderground v.1.15,2013-01-30 08:14:00,
2013-01-30 02:24:00,37.2,36.4,29.46,WNW,292,6.0,7.0,97,0.00,,,0.10,0,Wunderground v.1.15,2013-01-30 08:24:00,
2013-01-30 02:29:00,37.2,36.4,29.46,WNW,289,6.0,6.0,97,0.08,,,0.11,0,Wunderground v.1.15,2013-01-30 08:29:00,
2013-01-30 02:34:00,37.2,36.4,29.47,West,281,7.0,8.0,97,0.20,,,0.13,0,Wunderground v.1.15,2013-01-30 08:34:00,
2013-01-30 02:39:00,37.1,36.3,29.46,WNW,287,7.0,9.0,97,0.13,,,0.14,0,Wunderground v.1.15,2013-01-30 08:39:00,
2013-01-30 02:44:00,37.1,36.3,29.48,West,280,8.0,9.0,97,0.11,,,0.14,0,Wunderground v.1.15,2013-01-30 08:44:00,
2013-01-30 02:54:00,37.0,36.2,29.46,West,277,5.0,6.0,97,0.04,,,0.14,0,Wunderground v.1.15,2013-01-30 08:54:00,
2013-01-30 02:59:00,36.9,36.1,29.46,West,277,4.0,4.0,97,0.00,,,0.14,0,Wunderground v.1.15,2013-01-30 08:59:00,
2013-01-30 03:04:00,36.9,36.1,29.42,West,277,3.0,4.0,97,0.00,,,0.14,0,Wunderground v.1.15,2013-01-30 09:04:00,
2013-01-30 03:09:00,36.7,35.9,29.35,ENE,75,3.0,5.0,97,0.00,,,0.14,0,Wunderground v.1.15,2013-01-30 09:09:00,
2013-01-30 03:14:00,36.6,35.8,29.34,ENE,75,4.0,5.0,97,0.00,,,0.14,0,Wunderground v.1.15,2013-01-30 09:14:00,
2013-01-30 03:19:00,36.5,35.7,29.36,ENE,75,3.0,4.0,97,0.00,,,0.14,0,Wunderground v.1.15,2013-01-30 09:19:00,
2013-01-30 03:29:00,36.4,35.6,29.36,ENE,74,3.0,3.0,97,0.00,,,0.15,0,Wunderground v.1.15,2013-01-30 09:29:00,
2013-01-30 03:34:00,36.4,35.6,29.35,ENE,74,3.0,3.0,97,0.00,,,0.15,0,Wunderground v.1.15,2013-01-30 09:34:00,
2013-01-30 03:39:00,36.4,35.6,29.36,ENE,62,2.0,2.0,97,0.00,,,0.15,0,Wunderground v.1.15,2013-01-30 09:39:00,
2013-01-30 03:44:00,36.4,35.6,29.36,ENE,61,2.0,2.0,97,0.00,,,0.15,0,Wunderground v.1.15,2013-01-30 09:44:00,
2013-01-30 03:49:00,36.4,35.6,29.34,ENE,61,2.0,2.0,97,0.00,,,0.15,0,Wunderground v.1.15,2013-01-30 09:49:00,
2013-01-30 03:59:00,36.4,35.6,29.36,ENE,61,2.0,2.0,97,0.00,,,0.15,0,Wunderground v.1.15,2013-01-30 09:59:00,
2013-01-30 04:04:00,36.4,35.6,29.36,ENE,61,1.0,2.0,97,0.00,,,0.15,0,Wunderground v.1.15,2013-01-30 10:04:00,
2013-01-30 04:09:00,36.4,35.6,29.36,ENE,61,0.0,0.0,97,0.00,,,0.15,0,Wunderground v.1.15,2013-01-30 10:09:00,
2013-01-30 04:14:00,36.4,35.6,29.35,ENE,61,1.0,2.0,97,0.00,,,0.15,0,Wunderground v.1.15,2013-01-30 10:14:00,
2013-01-30 04:19:00,36.4,35.6,29.35,ENE,61,1.0,1.0,97,0.00,,,0.15,0,Wunderground v.1.15,2013-01-30 10:19:00,
2013-01-30 04:24:00,36.4,35.6,29.33,ENE,61,1.0,1.0,97,0.00,,,0.15,0,Wunderground v.1.15,2013-01-30 10:24:00,
2013-01-30 04:34:00,36.3,35.5,29.32,ENE,61,2.0,2.0,97,0.00,,,0.15,0,Wunderground v.1.15,2013-01-30 10:34:00,
2013-01-30 04:39:00,36.4,35.6,29.33,ENE,61,2.0,2.0,97,0.00,,,0.15,0,Wunderground v.1.15,2013-01-30 10:39:00,
2013-01-30 04:44:00,36.4,35.6,29.33,ENE,61,2.0,2.0,97,0.00,,,0.15,0,Wunderground v.1.15,2013-01-30 10:44:00,
2013-01-30 04:49:00,36.4,35.9,29.33,ENE,61,1.0,1.0,98,0.00,,,0.15,0,Wunderground v.1.15,2013-01-30 10:49:00,
2013-01-30 04:54:00,36.4,35.9,29.34,ENE,61,0.0,1.0,98,0.00,,,0.15,0,Wunderground v.1.15,2013-01-30 10:54:00,
2013-01-30 05:04:00,36.4,35.9,29.34,ENE,61,0.0,0.0,98,0.00,,,0.15,0,Wunderground v.1.15,2013-01-30 11:04:00,
2013-01-30 05:09:00,36.4,35.9,29.34,ENE,61,0.0,0.0,98,0.00,,,0.15,0,Wunderground v.1.15,2013-01-30 11:09:00,
2013-01-30 05:14:00,36.4,35.9,29.34,ENE,61,0.0,0.0,98,0.00,,,0.15,0,Wunderground v.1.15,2013-01-30 11:14:00,
2013-01-30 05:24:00,36.4,35.9,29.34,ENE,61,0.0,0.0,98,0.00,,,0.15,0,Wunderground v.1.15,2013-01-30 11:24:00,
2013-01-30 05:29:00,36.5,36.0,29.34,ENE,61,1.0,3.0,98,0.00,,,0.15,0,Wunderground v.1.15,2013-01-30 11:29:00,
2013-01-30 05:34:00,36.5,36.0,29.34,ENE,62,2.0,4.0,98,0.00,,,0.15,0,Wunderground v.1.15,2013-01-30 11:34:00,
2013-01-30 05:39:00,36.6,36.1,29.33,ENE,62,3.0,3.0,98,0.00,,,0.15,0,Wunderground v.1.15,2013-01-30 11:39:00,
2013-01-30 05:44:00,36.5,36.0,29.32,ENE,62,3.0,3.0,98,0.00,,,0.15,0,Wunderground v.1.15,2013-01-30 11:44:00,
2013-01-30 05:49:00,36.6,36.1,29.32,ENE,62,1.0,1.0,98,0.00,,,0.15,0,Wunderground v.1.15,2013-01-30 11:49:00,
2013-01-30 05:54:00,36.6,36.1,29.32,ENE,62,1.0,2.0,98,0.00,,,0.15,0,Wunderground v.1.15,2013-01-30 11:54:00,
2013-01-30 05:59:00,36.6,36.1,29.33,ENE,62,1.0,1.0,98,0.00,,,0.15,0,Wunderground v.1.15,2013-01-30 11:59:00,
2013-01-30 06:09:00,36.7,36.2,29.32,ENE,62,0.0,0.0,98,0.00,,,0.15,0,Wunderground v.1.15,2013-01-30 12:09:00,
2013-01-30 06:14:00,36.7,36.2,29.32,ENE,62,0.0,0.0,98,0.00,,,0.15,0,Wunderground v.1.15,2013-01-30 12:14:00,
2013-01-30 06:19:00,36.7,36.2,29.32,ENE,62,0.0,0.0,98,0.00,,,0.15,0,Wunderground v.1.15,2013-01-30 12:19:00,
2013-01-30 06:24:00,36.7,36.2,29.32,ENE,62,0.0,0.0,98,0.00,,,0.15,0,Wunderground v.1.15,2013-01-30 12:24:00,
2013-01-30 06:29:00,36.7,36.2,29.30,ENE,62,0.0,0.0,98,0.00,,,0.15,0,Wunderground v.1.15,2013-01-30 12:29:00,
2013-01-30 06:34:00,36.7,36.2,29.30,ENE,62,0.0,0.0,98,0.00,,,0.16,0,Wunderground v.1.15,2013-01-30 12:34:00,
2013-01-30 06:39:00,36.7,36.2,29.29,ENE,62,0.0,3.0,98,0.00,,,0.16,0,Wunderground v.1.15,2013-01-30 12:39:00,
2013-01-30 06:44:00,36.7,36.2,29.30,ENE,63,2.0,4.0,98,0.00,,,0.16,0,Wunderground v.1.15,2013-01-30 12:44:00,
2013-01-30 06:49:00,36.7,36.2,29.30,ENE,62,3.0,4.0,98,0.00,,,0.16,0,Wunderground v.1.15,2013-01-30 12:49:00,
2013-01-30 06:54:00,36.8,36.3,29.30,ENE,62,3.0,4.0,98,0.00,,,0.16,0,Wunderground v.1.15,2013-01-30 12:54:00,
2013-01-30 06:59:00,36.8,36.3,29.30,ENE,62,3.0,3.0,98,0.00,,,0.16,0,Wunderground v.1.15,2013-01-30 12:59:00,
2013-01-30 07:09:00,36.7,36.2,29.33,West,279,12.0,13.0,98,0.30,,,0.19,0,Wunderground v.1.15,2013-01-30 13:09:00,
2013-01-30 07:19:00,36.1,35.3,29.37,West,262,14.0,15.0,97,0.12,,,0.22,0,Wunderground v.1.15,2013-01-30 13:19:00,
2013-01-30 07:24:00,35.7,34.9,29.35,West,265,16.0,17.0,97,0.08,,,0.22,0,Wunderground v.1.15,2013-01-30 13:24:00,
2013-01-30 07:29:00,35.5,34.7,29.36,West,273,16.0,16.0,97,0.05,,,0.22,5,Wunderground v.1.15,2013-01-30 13:29:00,
2013-01-30 07:34:00,35.3,34.5,29.35,WNW,282,16.0,16.0,97,0.04,,,0.23,9,Wunderground v.1.15,2013-01-30 13:34:00,
2013-01-30 07:39:00,35.1,34.3,29.36,WNW,290,16.0,16.0,97,0.04,,,0.23,11,Wunderground v.1.15,2013-01-30 13:39:00,
2013-01-30 07:44:00,34.9,34.1,29.36,WNW,288,15.0,16.0,97,0.04,,,0.23,14,Wunderground v.1.15,2013-01-30 13:44:00,
2013-01-30 07:49:00,34.7,33.9,29.35,WNW,292,14.0,14.0,97,0.00,,,0.23,19,Wunderground v.1.15,2013-01-30 13:49:00,
2013-01-30 07:54:00,34.5,33.7,29.35,WNW,285,14.0,14.0,97,0.00,,,0.23,32,Wunderground v.1.15,2013-01-30 13:54:00,
2013-01-30 07:59:00,34.4,33.6,29.35,WNW,291,13.0,14.0,97,0.00,,,0.23,49,Wunderground v.1.15,2013-01-30 13:59:00,
2013-01-30 08:09:00,34.4,33.6,29.37,WNW,293,13.0,13.0,97,0.00,,,0.23,28,Wunderground v.1.15,2013-01-30 14:09:00,
2013-01-30 08:14:00,34.3,33.5,29.36,WNW,289,13.0,17.0,97,0.00,,,0.23,32,Wunderground v.1.15,2013-01-30 14:14:00,
2013-01-30 08:24:00,34.2,33.4,29.35,WNW,296,14.0,18.0,97,0.00,,,0.23,32,Wunderground v.1.15,2013-01-30 14:24:00,
2013-01-30 08:29:00,34.2,33.4,29.37,WNW,298,14.0,14.0,97,0.00,,,0.23,44,Wunderground v.1.15,2013-01-30 14:29:00,
2013-01-30 08:34:00,34.2,33.4,29.36,WNW,302,13.0,17.0,97,0.00,,,0.23,69,Wunderground v.1.15,2013-01-30 14:34:00,
2013-01-30 08:39:00,34.2,33.4,29.36,WNW,290,13.0,13.0,97,0.00,,,0.23,26,Wunderground v.1.15,2013-01-30 14:39:00,
2013-01-30 08:44:00,34.1,33.3,29.35,NW,304,14.0,16.0,97,0.00,,,0.23,58,Wunderground v.1.15,2013-01-30 14:44:00,
2013-01-30 08:49:00,34.1,33.3,29.36,NW,306,15.0,16.0,97,0.00,,,0.23,77,Wunderground v.1.15,2013-01-30 14:49:00,
2013-01-30 08:54:00,34.2,33.4,29.38,WNW,290,15.0,16.0,97,0.00,,,0.23,125,Wunderground v.1.15,2013-01-30 14:54:00,
2013-01-30 08:59:00,34.3,33.5,29.36,WNW,299,14.0,15.0,97,0.00,,,0.23,139,Wunderground v.1.15,2013-01-30 14:59:00,
2013-01-30 09:09:00,34.4,33.6,29.36,WNW,298,14.0,14.0,97,0.00,,,0.23,74,Wunderground v.1.15,2013-01-30 15:09:00,
2013-01-30 09:14:00,34.4,33.4,29.37,WNW,300,15.0,16.0,96,0.00,,,0.23,47,Wunderground v.1.15,2013-01-30 15:14:00,
2013-01-30 09:19:00,34.4,33.4,29.37,WNW,299,15.0,17.0,96,0.00,,,0.23,40,Wunderground v.1.15,2013-01-30 15:19:00,
2013-01-30 09:29:00,34.3,33.3,29.38,WNW,290,15.0,15.0,96,0.00,,,0.23,63,Wunderground v.1.15,2013-01-30 15:29:00,
2013-01-30 09:34:00,34.3,33.3,29.39,WNW,290,14.0,15.0,96,0.00,,,0.23,40,Wunderground v.1.15,2013-01-30 15:34:00,
2013-01-30 09:39:00,34.4,33.4,29.39,WNW,284,14.0,15.0,96,0.00,,,0.23,46,Wunderground v.1.15,2013-01-30 15:39:00,
2013-01-30 09:44:00,34.3,33.3,29.39,West,275,15.0,17.0,96,0.00,,,0.23,49,Wunderground v.1.15,2013-01-30 15:44:00,
2013-01-30 09:49:00,34.4,33.1,29.39,NW,307,16.0,22.0,95,0.00,,,0.23,46,Wunderground v.1.15,2013-01-30 15:49:00,
2013-01-30 09:54:00,34.3,33.0,29.39,WNW,289,17.0,22.0,95,0.00,,,0.23,58,Wunderground v.1.15,2013-01-30 15:54:00,
2013-01-30 10:04:00,34.4,33.1,29.39,WNW,284,16.0,19.0,95,0.00,,,0.23,46,Wunderground v.1.15,2013-01-30 16:04:00,
2013-01-30 10:09:00,34.3,33.0,29.39,WNW,298,15.0,18.0,95,0.00,,,0.23,47,Wunderground v.1.15,2013-01-30 16:09:00,
2013-01-30 10:14:00,34.2,32.7,29.39,WNW,297,16.0,18.0,94,0.00,,,0.23,42,Wunderground v.1.15,2013-01-30 16:14:00,
2013-01-30 10:19:00,34.0,32.5,29.40,WNW,292,17.0,21.0,94,0.00,,,0.23,49,Wunderground v.1.15,2013-01-30 16:19:00,
2013-01-30 10:24:00,33.4,31.6,29.41,WNW,290,18.0,21.0,93,0.00,,,0.23,54,Wunderground v.1.15,2013-01-30 16:24:00,
2013-01-30 10:29:00,33.0,31.2,29.42,WNW,297,20.0,20.0,93,0.00,,,0.23,58,Wunderground v.1.15,2013-01-30 16:29:00,
2013-01-30 10:34:00,32.7,30.9,29.41,WNW,296,21.0,22.0,93,0.00,,,0.23,65,Wunderground v.1.15,2013-01-30 16:34:00,
2013-01-30 10:39:00,32.5,30.7,29.41,WNW,288,22.0,23.0,93,0.00,,,0.23,70,Wunderground v.1.15,2013-01-30 16:39:00,
2013-01-30 10:44:00,32.4,30.3,29.41,WNW,300,21.0,25.0,92,0.00,,,0.23,86,Wunderground v.1.15,2013-01-30 16:44:00,
2013-01-30 10:49:00,32.4,30.6,29.42,WNW,290,20.0,22.0,93,0.00,,,0.23,111,Wunderground v.1.15,2013-01-30 16:49:00,
2013-01-30 10:54:00,32.3,30.2,29.41,NW,304,21.0,22.0,92,0.00,,,0.23,113,Wunderground v.1.15,2013-01-30 16:54:00,
2013-01-30 11:04:00,32.3,30.2,29.42,NW,304,21.0,23.0,92,0.00,,,0.23,86,Wunderground v.1.15,2013-01-30 17:04:00,
2013-01-30 11:09:00,32.4,30.3,29.43,WNW,284,20.0,20.0,92,0.00,,,0.23,56,Wunderground v.1.15,2013-01-30 17:09:00,
2013-01-30 11:14:00,32.3,30.2,29.43,WNW,299,18.0,20.0,92,0.00,,,0.23,60,Wunderground v.1.15,2013-01-30 17:14:00,
2013-01-30 11:19:00,32.0,29.7,29.43,WNW,291,19.0,19.0,91,0.00,,,0.23,67,Wunderground v.1.15,2013-01-30 17:19:00,
2013-01-30 11:24:00,31.9,29.8,29.43,WNW,287,19.0,20.0,92,0.00,,,0.23,58,Wunderground v.1.15,2013-01-30 17:24:00,
2013-01-30 11:29:00,31.7,29.4,29.43,NW,309,20.0,24.0,91,0.00,,,0.23,58,Wunderground v.1.15,2013-01-30 17:29:00,
2013-01-30 11:39:00,31.6,29.3,29.43,WNW,301,21.0,22.0,91,0.00,,,0.23,60,Wunderground v.1.15,2013-01-30 17:39:00,
2013-01-30 11:44:00,31.5,29.2,29.44,WNW,298,21.0,25.0,91,0.00,,,0.23,60,Wunderground v.1.15,2013-01-30 17:44:00,
2013-01-30 11:49:00,31.5,28.9,29.43,WNW,300,23.0,24.0,90,0.00,,,0.23,60,Wunderground v.1.15,2013-01-30 17:49:00,
2013-01-30 11:54:00,31.5,28.9,29.44,NW,307,22.0,24.0,90,0.00,,,0.23,56,Wunderground v.1.15,2013-01-30 17:54:00,
2013-01-30 11:59:00,31.5,28.9,29.44,NW,306,22.0,22.0,90,0.00,,,0.23,49,Wunderground v.1.15,2013-01-30 17:59:00,
2013-01-30 12:09:00,31.5,28.9,29.44,NW,304,21.0,24.0,90,0.00,,,0.23,46,Wunderground v.1.15,2013-01-30 18:09:00,
2013-01-30 12:14:00,31.4,28.8,29.44,WNW,295,21.0,24.0,90,0.00,,,0.23,49,Wunderground v.1.15,2013-01-30 18:14:00,
2013-01-30 12:19:00,31.4,28.5,29.44,WNW,300,23.0,26.0,89,0.00,,,0.23,53,Wunderground v.1.15,2013-01-30 18:19:00,
2013-01-30 12:24:00,31.4,28.5,29.44,NW,309,25.0,27.0,89,0.00,,,0.23,47,Wunderground v.1.15,2013-01-30 18:24:00,
2013-01-30 12:29:00,31.4,28.5,29.44,WNW,300,24.0,26.0,89,0.00,,,0.23,53,Wunderground v.1.15,2013-01-30 18:29:00,
2013-01-30 12:34:00,31.3,28.4,29.44,NW,305,24.0,26.0,89,0.00,,,0.23,53,Wunderground v.1.15,2013-01-30 18:34:00,
2013-01-30 12:39:00,31.3,28.4,29.45,WNW,296,24.0,24.0,89,0.00,,,0.23,40,Wunderground v.1.15,2013-01-30 18:39:00,
2013-01-30 12:44:00,31.2,28.3,29.45,WNW,289,23.0,24.0,89,0.00,,,0.23,42,Wunderground v.1.15,2013-01-30 18:44:00,
2013-01-30 12:49:00,30.9,28.0,29.45,NW,306,22.0,31.0,89,0.00,,,0.23,46,Wunderground v.1.15,2013-01-30 18:49:00,
2013-01-30 12:54:00,30.5,27.6,29.45,WNW,300,24.0,31.0,89,0.00,,,0.23,54,Wunderground v.1.15,2013-01-30 18:54:00,
2013-01-30 12:59:00,30.1,27.3,29.46,WNW,289,26.0,26.0,89,0.00,,,0.23,56,Wunderground v.1.15,2013-01-30 18:59:00,
2013-01-30 13:09:00,29.4,26.3,29.46,WNW,303,26.0,31.0,88,0.00,,,0.23,74,Wunderground v.1.15,2013-01-30 19:09:00,
2013-01-30 13:19:00,29.2,26.6,29.46,WNW,292,26.0,29.0,90,0.00,,,0.23,97,Wunderground v.1.15,2013-01-30 19:19:00,
2013-01-30 13:24:00,28.9,26.1,29.46,WNW,299,26.0,29.0,89,0.00,,,0.23,95,Wunderground v.1.15,2013-01-30 19:24:00,
2013-01-30 13:29:00,28.7,25.9,29.48,WNW,300,28.0,28.0,89,0.00,,,0.23,130,Wunderground v.1.15,2013-01-30 19:29:00,
2013-01-30 13:34:00,28.7,25.9,29.48,WNW,301,28.0,32.0,89,0.00,,,0.23,128,Wunderground v.1.15,2013-01-30 19:34:00,
2013-01-30 13:39:00,28.7,25.9,29.49,WNW,302,27.0,27.0,89,0.00,,,0.23,84,Wunderground v.1.15,2013-01-30 19:39:00,
2013-01-30 13:44:00,28.6,25.8,29.48,WNW,296,26.0,28.0,89,0.00,,,0.23,83,Wunderground v.1.15,2013-01-30 19:44:00,
2013-01-30 13:49:00,28.3,25.2,29.49,WNW,294,28.0,30.0,88,0.00,,,0.23,111,Wunderground v.1.15,2013-01-30 19:49:00,
2013-01-30 13:54:00,28.2,25.1,29.49,WNW,303,30.0,31.0,88,0.00,,,0.23,127,Wunderground v.1.15,2013-01-30 19:54:00,
2013-01-30 14:04:00,28.1,25.3,29.50,NW,304,27.0,28.0,89,0.00,,,0.23,95,Wunderground v.1.15,2013-01-30 20:04:00,
2013-01-30 14:09:00,27.9,25.1,29.50,WNW,300,28.0,30.0,89,0.00,,,0.23,139,Wunderground v.1.15,2013-01-30 20:09:00,
2013-01-30 14:14:00,27.9,25.1,29.51,NW,304,29.0,30.0,89,0.00,,,0.23,137,Wunderground v.1.15,2013-01-30 20:14:00,
2013-01-30 14:24:00,27.9,25.3,29.51,WNW,285,27.0,28.0,90,0.00,,,0.23,146,Wunderground v.1.15,2013-01-30 20:24:00,
2013-01-30 14:29:00,27.9,25.3,29.52,NW,309,26.0,29.0,90,0.00,,,0.23,79,Wunderground v.1.15,2013-01-30 20:29:00,
2013-01-30 14:34:00,27.8,25.2,29.52,WNW,296,26.0,36.0,90,0.00,,,0.23,130,Wunderground v.1.15,2013-01-30 20:34:00,
2013-01-30 14:39:00,27.8,25.0,29.53,WNW,301,28.0,28.0,89,0.00,,,0.23,153,Wunderground v.1.15,2013-01-30 20:39:00,
2013-01-30 14:44:00,27.9,24.8,29.53,WNW,292,29.0,29.0,88,0.00,,,0.23,167,Wunderground v.1.15,2013-01-30 20:44:00,
2013-01-30 14:49:00,28.0,25.2,29.53,NW,308,27.0,27.0,89,0.00,,,0.23,134,Wunderground v.1.15,2013-01-30 20:49:00,
2013-01-30 14:59:00,27.4,24.0,29.54,WNW,300,26.0,26.0,87,0.00,,,0.23,79,Wunderground v.1.15,2013-01-30 20:59:00,
2013-01-30 15:04:00,27.2,23.8,29.54,WNW,296,27.0,29.0,87,0.00,,,0.23,127,Wunderground v.1.15,2013-01-30 21:04:00,
2013-01-30 15:09:00,27.0,23.6,29.55,NW,309,28.0,28.0,87,0.00,,,0.23,132,Wunderground v.1.15,2013-01-30 21:09:00,
2013-01-30 15:14:00,27.1,23.7,29.55,WNW,293,28.0,28.0,87,0.00,,,0.23,98,Wunderground v.1.15,2013-01-30 21:14:00,
2013-01-30 15:19:00,26.9,23.5,29.56,WNW,298,26.0,32.0,87,0.00,,,0.23,79,Wunderground v.1.15,2013-01-30 21:19:00,
2013-01-30 15:29:00,26.3,23.2,29.57,WNW,302,27.0,27.0,88,0.00,,,0.23,83,Wunderground v.1.15,2013-01-30 21:29:00,
2013-01-30 15:34:00,26.1,23.0,29.56,WNW,298,26.0,27.0,88,0.00,,,0.23,113,Wunderground v.1.15,2013-01-30 21:34:00,
2013-01-30 15:39:00,26.2,22.9,29.57,WNW,300,26.0,27.0,87,0.00,,,0.23,97,Wunderground v.1.15,2013-01-30 21:39:00,
2013-01-30 15:44:00,26.2,22.9,29.58,WNW,299,26.0,27.0,87,0.00,,,0.23,88,Wunderground v.1.15,2013-01-30 21:44:00,
2013-01-30 15:50:00,26.1,22.8,29.59,WNW,303,24.0,29.0,87,0.00,,,0.23,104,Wunderground v.1.15,2013-01-30 21:50:00,
2013-01-30 16:00:00,25.8,22.2,29.59,WNW,302,25.0,25.0,86,0.00,,,0.23,54,Wunderground v.1.15,2013-01-30 22:00:00,
2013-01-30 16:05:00,25.6,21.7,29.60,WNW,301,26.0,26.0,85,0.00,,,0.23,51,Wunderground v.1.15,2013-01-30 22:05:00,
2013-01-30 16:10:00,25.4,21.8,29.60,WNW,296,26.0,30.0,86,0.00,,,0.23,44,Wunderground v.1.15,2013-01-30 22:10:00,
2013-01-30 16:15:00,25.1,21.5,29.60,NW,305,27.0,30.0,86,0.00,,,0.23,58,Wunderground v.1.15,2013-01-30 22:15:00,
2013-01-30 16:20:00,25.3,22.0,29.60,NW,313,27.0,34.0,87,0.00,,,0.23,65,Wunderground v.1.15,2013-01-30 22:20:00,
2013-01-30 16:30:00,25.3,21.4,29.62,WNW,298,25.0,25.0,85,0.00,,,0.23,49,Wunderground v.1.15,2013-01-30 22:30:00,
2013-01-30 16:35:00,25.2,21.6,29.62,WNW,295,25.0,26.0,86,0.00,,,0.23,53,Wunderground v.1.15,2013-01-30 22:35:00,
2013-01-30 16:40:00,25.2,21.6,29.62,WNW,291,24.0,24.0,86,0.00,,,0.23,44,Wunderground v.1.15,2013-01-30 22:40:00,
2013-01-30 16:45:00,25.2,21.3,29.63,WNW,291,24.0,25.0,85,0.00,,,0.23,18,Wunderground v.1.15,2013-01-30 22:45:00,
2013-01-30 16:50:00,25.1,20.9,29.63,WNW,301,24.0,24.0,84,0.00,,,0.23,9,Wunderground v.1.15,2013-01-30 22:50:00,
2013-01-30 16:55:00,25.1,21.2,29.64,WNW,294,24.0,24.0,85,0.00,,,0.23,5,Wunderground v.1.15,2013-01-30 22:55:00,
2013-01-30 17:00:00,24.8,20.9,29.64,WNW,300,23.0,26.0,85,0.00,,,0.23,0,Wunderground v.1.15,2013-01-30 23:00:00,
2013-01-30 17:10:00,24.6,20.7,29.65,WNW,292,25.0,25.0,85,0.00,,,0.23,0,Wunderground v.1.15,2013-01-30 23:10:00,
2013-01-30 17:15:00,24.5,20.4,29.65,NW,306,25.0,25.0,84,0.00,,,0.23,0,Wunderground v.1.15,2013-01-30 23:15:00,
2013-01-30 17:20:00,24.6,20.5,29.66,WNW,286,24.0,24.0,84,0.00,,,0.23,0,Wunderground v.1.15,2013-01-30 23:20:00,
2013-01-30 17:25:00,24.6,21.0,29.66,WNW,284,21.0,24.0,86,0.00,,,0.23,0,Wunderground v.1.15,2013-01-30 23:25:00,
2013-01-30 17:30:00,24.3,20.2,29.66,WNW,296,21.0,26.0,84,0.00,,,0.23,0,Wunderground v.1.15,2013-01-30 23:30:00,
2013-01-30 17:35:00,24.0,19.9,29.66,NW,307,27.0,30.0,84,0.00,,,0.23,0,Wunderground v.1.15,2013-01-30 23:35:00,
2013-01-30 17:40:00,24.0,19.9,29.66,WNW,302,28.0,32.0,84,0.00,,,0.23,0,Wunderground v.1.15,2013-01-30 23:40:00,
2013-01-30 17:45:00,24.1,20.2,29.67,WNW,302,27.0,32.0,85,0.00,,,0.23,0,Wunderground v.1.15,2013-01-30 23:45:00,
2013-01-30 17:50:00,24.2,19.8,29.67,WNW,300,27.0,31.0,83,0.00,,,0.23,0,Wunderground v.1.15,2013-01-30 23:50:00,
2013-01-30 17:55:00,24.0,19.6,29.68,NW,304,27.0,31.0,83,0.00,,,0.23,0,Wunderground v.1.15,2013-01-30 23:55:00,
2013-01-30 18:00:00,24.0,19.9,29.68,NW,304,26.0,26.0,84,0.00,,,0.23,0,Wunderground v.1.15,2013-01-31 00:00:00,
2013-01-30 18:10:00,24.2,20.1,29.69,WNW,296,21.0,23.0,84,0.00,,,0.23,0,Wunderground v.1.15,2013-01-31 00:10:00,
2013-01-30 18:15:00,24.1,20.2,29.70,WNW,284,21.0,23.0,85,0.00,,,0.23,0,Wunderground v.1.15,2013-01-31 00:15:00,
2013-01-30 18:20:00,24.0,20.1,29.70,WNW,289,21.0,26.0,85,0.00,,,0.23,0,Wunderground v.1.15,2013-01-31 00:20:00,
2013-01-30 18:25:00,23.8,19.7,29.71,WNW,290,21.0,26.0,84,0.00,,,0.23,0,Wunderground v.1.15,2013-01-31 00:25:00,
2013-01-30 18:30:00,23.8,19.9,29.71,West,278,22.0,25.0,85,0.00,,,0.23,0,Wunderground v.1.15,2013-01-31 00:30:00,
2013-01-30 18:35:00,23.6,19.2,29.71,WNW,292,22.0,27.0,83,0.00,,,0.23,0,Wunderground v.1.15,2013-01-31 00:35:00,
2013-01-30 18:40:00,23.4,18.7,29.71,WNW,290,24.0,27.0,82,0.00,,,0.23,0,Wunderground v.1.15,2013-01-31 00:40:00,
2013-01-30 18:45:00,23.4,19.3,29.72,WNW,288,23.0,27.0,84,0.00,,,0.23,0,Wunderground v.1.15,2013-01-31 00:45:00,
2013-01-30 18:50:00,23.3,19.2,29.72,WNW,300,21.0,23.0,84,0.00,,,0.23,0,Wunderground v.1.15,2013-01-31 00:50:00,
2013-01-30 18:55:00,23.2,18.8,29.71,West,281,22.0,23.0,83,0.00,,,0.23,0,Wunderground v.1.15,2013-01-31 00:55:00,
2013-01-30 19:00:00,23.2,19.1,29.72,NW,304,23.0,28.0,84,0.00,,,0.23,0,Wunderground v.1.15,2013-01-31 01:00:00,
2013-01-30 19:10:00,23.3,19.2,29.73,WNW,302,21.0,21.0,84,0.00,,,0.23,0,Wunderground v.1.15,2013-01-31 01:10:00,
2013-01-30 19:15:00,23.3,18.9,29.73,WNW,296,21.0,23.0,83,0.00,,,0.23,0,Wunderground v.1.15,2013-01-31 01:15:00,
2013-01-30 19:20:00,23.4,19.3,29.73,WNW,298,22.0,23.0,84,0.00,,,0.23,0,Wunderground v.1.15,2013-01-31 01:20:00,
2013-01-30 19:25:00,23.4,19.0,29.74,WNW,298,22.0,23.0,83,0.00,,,0.23,0,Wunderground v.1.15,2013-01-31 01:25:00,
2013-01-30 19:30:00,23.5,19.4,29.73,WNW,284,22.0,22.0,84,0.00,,,0.23,0,Wunderground v.1.15,2013-01-31 01:30:00,
2013-01-30 19:35:00,23.4,19.0,29.73,WNW,298,22.0,22.0,83,0.00,,,0.23,0,Wunderground v.1.15,2013-01-31 01:35:00,
2013-01-30 19:40:00,23.5,19.4,29.74,WNW,289,23.0,23.0,84,0.00,,,0.23,0,Wunderground v.1.15,2013-01-31 01:40:00,
2013-01-30 19:50:00,23.4,19.0,29.74,WNW,286,22.0,22.0,83,0.00,,,0.23,0,Wunderground v.1.15,2013-01-31 01:50:00,
2013-01-30 19:55:00,23.4,19.3,29.75,WNW,290,22.0,30.0,84,0.00,,,0.23,0,Wunderground v.1.15,2013-01-31 01:55:00,
2013-01-30 20:00:00,23.3,18.9,29.76,NW,306,22.0,23.0,83,0.00,,,0.23,0,Wunderground v.1.15,2013-01-31 02:00:00,
2013-01-30 20:05:00,23.1,18.4,29.76,NW,309,23.0,26.0,82,0.00,,,0.23,0,Wunderground v.1.15,2013-01-31 02:05:00,
2013-01-30 20:10:00,22.9,17.9,29.76,NW,305,26.0,26.0,81,0.00,,,0.23,0,Wunderground v.1.15,2013-01-31 02:10:00,
2013-01-30 20:20:00,22.8,18.1,29.77,WNW,288,25.0,26.0,82,0.00,,,0.23,0,Wunderground v.1.15,2013-01-31 02:20:00,
2013-01-30 20:25:00,22.7,18.0,29.77,WNW,294,24.0,26.0,82,0.00,,,0.23,0,Wunderground v.1.15,2013-01-31 02:25:00,
2013-01-30 20:30:00,22.8,18.4,29.77,WNW,298,22.0,22.0,83,0.00,,,0.23,0,Wunderground v.1.15,2013-01-31 02:30:00,
2013-01-30 20:35:00,22.7,18.0,29.77,WNW,290,22.0,31.0,82,0.00,,,0.23,0,Wunderground v.1.15,2013-01-31 02:35:00,
2013-01-30 20:40:00,22.7,17.7,29.77,WNW,288,23.0,23.0,81,0.00,,,0.23,0,Wunderground v.1.15,2013-01-31 02:40:00,
2013-01-30 20:45:00,22.6,17.4,29.77,WNW,290,24.0,24.0,80,0.00,,,0.23,0,Wunderground v.1.15,2013-01-31 02:45:00,
2013-01-30 20:55:00,22.5,17.0,29.78,WNW,297,26.0,28.0,79,0.00,,,0.23,0,Wunderground v.1.15,2013-01-31 02:55:00,
2013-01-30 21:00:00,22.5,17.3,29.79,WNW,290,27.0,27.0,80,0.00,,,0.23,0,Wunderground v.1.15,2013-01-31 03:00:00,
2013-01-30 21:05:00,22.5,17.3,29.79,WNW,294,24.0,27.0,80,0.00,,,0.23,0,Wunderground v.1.15,2013-01-31 03:05:00,
2013-01-30 21:10:00,22.5,17.5,29.80,NW,309,22.0,22.0,81,0.00,,,0.23,0,Wunderground v.1.15,2013-01-31 03:10:00,
2013-01-30 21:15:00,22.4,17.2,29.80,NW,307,24.0,24.0,80,0.00,,,0.23,0,Wunderground v.1.15,2013-01-31 03:15:00,
2013-01-30 21:25:00,22.1,17.4,29.80,WNW,301,22.0,28.0,82,0.00,,,0.23,0,Wunderground v.1.15,2013-01-31 03:25:00,
2013-01-30 21:30:00,22.1,17.7,29.80,NW,311,22.0,23.0,83,0.00,,,0.23,0,Wunderground v.1.15,2013-01-31 03:30:00,
2013-01-30 21:35:00,21.9,17.2,29.80,WNW,300,21.0,23.0,82,0.00,,,0.23,0,Wunderground v.1.15,2013-01-31 03:35:00,
2013-01-30 21:40:00,21.7,17.1,29.80,WNW,299,22.0,23.0,82,0.00,,,0.23,0,Wunderground v.1.15,2013-01-31 03:40:00,
2013-01-30 21:45:00,21.6,16.7,29.81,WNW,290,22.0,23.0,81,0.00,,,0.23,0,Wunderground v.1.15,2013-01-31 03:45:00,
2013-01-30 21:50:00,21.4,15.6,29.81,WNW,294,22.0,23.0,78,0.00,,,0.23,0,Wunderground v.1.15,2013-01-31 03:50:00,
2013-01-30 22:00:00,21.1,16.5,29.82,West,280,19.0,19.0,82,0.00,,,0.23,0,Wunderground v.1.15,2013-01-31 04:00:00,
2013-01-30 22:05:00,21.0,16.6,29.82,West,271,17.0,19.0,83,0.00,,,0.23,0,Wunderground v.1.15,2013-01-31 04:05:00,
2013-01-30 22:10:00,20.9,16.0,29.82,WNW,284,17.0,19.0,81,0.00,,,0.23,0,Wunderground v.1.15,2013-01-31 04:10:00,
2013-01-30 22:15:00,20.8,15.9,29.82,WNW,293,19.0,19.0,81,0.00,,,0.23,0,Wunderground v.1.15,2013-01-31 04:15:00,
2013-01-30 22:20:00,20.7,15.5,29.82,West,278,20.0,20.0,80,0.00,,,0.23,0,Wunderground v.1.15,2013-01-31 04:20:00,
2013-01-30 22:30:00,20.7,15.8,29.83,WNW,295,20.0,20.0,81,0.00,,,0.23,0,Wunderground v.1.15,2013-01-31 04:30:00,
2013-01-30 22:35:00,20.5,15.9,29.83,NW,308,19.0,26.0,82,0.00,,,0.23,0,Wunderground v.1.15,2013-01-31 04:35:00,
2013-01-30 22:40:00,20.2,15.0,29.83,NW,311,21.0,25.0,80,0.00,,,0.23,0,Wunderground v.1.15,2013-01-31 04:40:00,
2013-01-30 22:45:00,20.0,14.8,29.84,WNW,302,23.0,26.0,80,0.00,,,0.23,0,Wunderground v.1.15,2013-01-31 04:45:00,
2013-01-30 22:50:00,19.9,15.0,29.84,WNW,300,22.0,22.0,81,0.00,,,0.23,0,Wunderground v.1.15,2013-01-31 04:50:00,
2013-01-30 22:55:00,19.8,14.9,29.84,WNW,292,21.0,22.0,81,0.00,,,0.23,0,Wunderground v.1.15,2013-01-31 04:55:00,
2013-01-30 23:05:00,19.9,15.0,29.85,WNW,295,18.0,19.0,81,0.00,,,0.23,0,Wunderground v.1.15,2013-01-31 05:05:00,
2013-01-30 23:10:00,19.8,14.9,29.85,West,278,18.0,23.0,81,0.00,,,0.23,0,Wunderground v.1.15,2013-01-31 05:10:00,
2013-01-30 23:15:00,19.8,14.9,29.85,WNW,297,19.0,24.0,81,0.00,,,0.23,0,Wunderground v.1.15,2013-01-31 05:15:00,
2013-01-30 23:20:00,19.8,14.9,29.86,West,276,20.0,24.0,81,0.00,,,0.23,0,Wunderground v.1.15,2013-01-31 05:20:00,
2013-01-30 23:25:00,19.8,14.9,29.86,WNW,294,19.0,24.0,81,0.00,,,0.23,0,Wunderground v.1.15,2013-01-31 05:25:00,
2013-01-30 23:30:00,19.8,14.6,29.86,WNW,298,19.0,19.0,80,0.00,,,0.23,0,Wunderground v.1.15,2013-01-31 05:30:00,
2013-01-30 23:40:00,19.8,14.6,29.86,WNW,292,18.0,18.0,80,0.00,,,0.23,0,Wunderground v.1.15,2013-01-31 05:40:00,
2013-01-30 23:45:00,19.8,14.6,29.86,WNW,296,17.0,18.0,80,0.00,,,0.23,0,Wunderground v.1.15,2013-01-31 05:45:00,
2013-01-30 23:50:00,19.8,14.6,29.86,WNW,288,15.0,18.0,80,0.00,,,0.23,0,Wunderground v.1.15,2013-01-31 05:50:00,
2013-01-30 23:55:00,19.8,14.6,29.87,WNW,286,15.0,18.0,80,0.00,,,0.23,0,Wunderground v.1.15,2013-01-31 05:55:00,